Time;durP1;ratioP1;P1;durP2;ratioP2;P2;SDS_P1;SDS_P2;PMS_P1;PMS_P2;Temp;Humidity;BMP_temperature;BMP_pressure;BME280_temperature;BME280_humidity;BME280_pressure;Samples;Min_cycle;Max_cycle;Signal;HPM_P1;HPM_P2
2021/12/07 00:00:35;;;;;;;;;;;-1.70;94.40;;;;;;5124864;27;19954;-81
2021/12/07 00:03:01;;;;;;;;;;;-1.70;94.30;;;;;;5119038;27;19925;-80
2021/12/07 00:05:27;;;;;;;;;;;-1.70;94.30;;;;;;5126105;27;19915;-83
2021/12/07 00:07:53;;;;;;;;;;;-1.70;94.30;;;;;;5125264;27;20272;-81
2021/12/07 00:10:20;;;;;;;;;;;-1.70;94.40;;;;;;5102776;27;19923;-82
2021/12/07 00:12:46;;;;;;;;;;;-1.70;94.40;;;;;;5122122;27;19930;-81
2021/12/07 00:15:16;;;;;;;;;;;-1.70;94.40;;;;;;5143757;27;19916;-82
2021/12/07 00:17:44;;;;;;;;;;;-1.70;94.20;;;;;;5137090;27;20414;-81
2021/12/07 00:20:11;;;;;;;;;;;-1.70;94.20;;;;;;5118215;27;20643;-82
2021/12/07 00:22:38;;;;;;;;;;;-1.70;94.20;;;;;;5133624;27;20002;-82
2021/12/07 00:25:06;;;;;;;;;;;-1.70;94.20;;;;;;5101815;27;20338;-83
2021/12/07 00:27:32;;;;;;;;;;;-1.80;94.20;;;;;;5104789;27;19952;-83
2021/12/07 00:29:58;;;;;;;;;;;-1.80;94.10;;;;;;5118844;27;20011;-83
2021/12/07 00:32:30;;;;;;;;;;;-1.80;94.20;;;;;;5133097;27;20350;-83
2021/12/07 00:37:26;;;;;;;;;;;-1.80;94.20;;;;;;5135177;27;20305;-82
2021/12/07 00:39:55;;;;;;;;;;;-1.80;94.20;;;;;;5118950;27;20394;-82
2021/12/07 00:42:21;;;;;;;;;;;-1.80;94.20;;;;;;5137262;27;20013;-82
2021/12/07 00:44:48;;;;;;;;;;;-1.80;94.20;;;;;;5109448;27;19919;-81
2021/12/07 00:47:14;;;;;;;;;;;-1.80;94.10;;;;;;5152463;27;20363;-81
2021/12/07 00:49:40;;;;;;;;;;;-1.80;93.90;;;;;;5118085;27;19919;-82
2021/12/07 00:52:06;;;;;;;;;;;-1.80;94.00;;;;;;5118902;27;19923;-81
2021/12/07 00:54:33;;;;;;;;;;;-1.90;93.90;;;;;;5101992;27;19972;-82
2021/12/07 00:56:59;;;;;;;;;;;-1.90;93.90;;;;;;5118484;27;19970;-81
2021/12/07 00:59:25;;;;;;;;;;;-1.90;94.00;;;;;;5114876;27;19915;-80
2021/12/07 01:01:52;;;;;;;;;;;-2.00;94.00;;;;;;5132277;27;19920;-81
2021/12/07 01:04:18;;;;;;;;;;;-2.00;94.10;;;;;;5137377;27;20014;-81
2021/12/07 01:09:20;;;;;;;;;;;-2.00;94.10;;;;;;5127698;27;20414;-79
2021/12/07 01:25:37;;;;;;;;;;;-2.00;93.90;;;;;;5134981;27;20374;-80
2021/12/07 01:28:12;;;;;;;;;;;-2.00;93.90;;;;;;5133378;27;19930;-81
2021/12/07 01:31:06;;;;;;;;;;;-2.00;93.80;;;;;;5126373;27;19919;-83
2021/12/07 01:37:09;;;;;;;;;;;-2.00;93.70;;;;;;5130016;27;19922;-82
2021/12/07 01:41:39;;;;;;;;;;;-2.00;93.60;;;;;;5136500;27;20344;-84
2021/12/07 01:44:28;;;;;;;;;;;-2.10;93.60;;;;;;5116370;27;20454;-85
2021/12/07 02:00:26;;;;;;;;;;;-2.00;93.70;;;;;;5132265;27;19915;-83
2021/12/07 02:02:52;;;;;;;;;;;-2.00;93.70;;;;;;5100375;27;19977;-82
2021/12/07 02:05:19;;;;;;;;;;;-2.00;93.60;;;;;;5127761;27;19920;-83
2021/12/07 02:07:45;;;;;;;;;;;-2.10;93.30;;;;;;5127174;27;20013;-80
2021/12/07 02:10:15;;;;;;;;;;;-2.10;93.20;;;;;;5118849;27;20355;-83
2021/12/07 02:12:47;;;;;;;;;;;-2.10;93.20;;;;;;5128347;27;19923;-83
2021/12/07 02:15:15;;;;;;;;;;;-2.20;93.10;;;;;;5132785;27;19914;-84
2021/12/07 02:17:41;;;;;;;;;;;-2.20;93.20;;;;;;5136433;27;20401;-82
2021/12/07 02:20:08;;;;;;;;;;;-2.30;93.40;;;;;;5114765;27;19965;-81
2021/12/07 02:22:34;;;;;;;;;;;-2.30;93.50;;;;;;5112242;27;19918;-82
2021/12/07 02:25:00;;;;;;;;;;;-2.30;93.50;;;;;;5114172;27;19919;-82
2021/12/07 02:27:26;;;;;;;;;;;-2.30;93.60;;;;;;5131766;27;19934;-82
2021/12/07 02:29:52;;;;;;;;;;;-2.30;93.70;;;;;;5152477;27;19915;-81
2021/12/07 02:32:18;;;;;;;;;;;-2.30;93.80;;;;;;5131393;27;19983;-82
2021/12/07 02:34:54;;;;;;;;;;;-2.20;93.80;;;;;;5099310;27;19919;-82
2021/12/07 02:37:24;;;;;;;;;;;-2.30;93.80;;;;;;5121862;27;19994;-82
2021/12/07 02:39:50;;;;;;;;;;;-2.20;93.80;;;;;;5121781;27;19919;-80
2021/12/07 02:42:16;;;;;;;;;;;-2.20;93.80;;;;;;5118998;27;19960;-81
2021/12/07 02:44:42;;;;;;;;;;;-2.20;93.70;;;;;;5127389;27;19903;-84
2021/12/07 02:47:08;;;;;;;;;;;-2.20;93.70;;;;;;5111703;27;19927;-84
2021/12/07 02:49:34;;;;;;;;;;;-2.20;93.80;;;;;;5140283;27;20367;-83
2021/12/07 02:52:00;;;;;;;;;;;-2.20;93.80;;;;;;5108537;27;19927;-82
2021/12/07 02:54:27;;;;;;;;;;;-2.20;93.50;;;;;;5127371;27;19919;-83
2021/12/07 02:56:53;;;;;;;;;;;-2.20;93.50;;;;;;5134047;27;19942;-81
2021/12/07 02:59:20;;;;;;;;;;;-2.20;93.60;;;;;;5125289;27;19937;-82
2021/12/07 03:01:55;;;;;;;;;;;-2.30;93.60;;;;;;5121677;27;19920;-82
2021/12/07 03:04:26;;;;;;;;;;;-2.30;93.60;;;;;;5131773;27;19934;-82
2021/12/07 03:28:26;;;;;;;;;;;-2.20;93.80;;;;;;5131192;27;19930;-82
2021/12/07 03:30:52;;;;;;;;;;;-2.20;93.80;;;;;;5099075;27;19918;-83
2021/12/07 03:33:18;;;;;;;;;;;-2.20;93.80;;;;;;5129860;27;19915;-81
2021/12/07 03:35:44;;;;;;;;;;;-2.20;93.90;;;;;;5148819;27;19987;-81
2021/12/07 03:38:10;;;;;;;;;;;-2.20;93.90;;;;;;5129293;27;19941;-81
2021/12/07 03:40:36;;;;;;;;;;;-2.20;93.90;;;;;;5131549;27;19989;-81
2021/12/07 03:43:03;;;;;;;;;;;-2.20;94.00;;;;;;5142489;27;19938;-81
2021/12/07 03:45:31;;;;;;;;;;;-2.20;94.00;;;;;;5150033;27;20022;-81
2021/12/07 03:47:58;;;;;;;;;;;-2.20;94.00;;;;;;5135264;27;19915;-81
2021/12/07 03:50:25;;;;;;;;;;;-2.20;94.00;;;;;;5117890;27;19969;-82
2021/12/07 03:52:52;;;;;;;;;;;-2.30;94.10;;;;;;5141164;27;19972;-81
2021/12/07 03:55:18;;;;;;;;;;;-2.30;94.10;;;;;;5117117;28;19915;-82
2021/12/07 03:57:44;;;;;;;;;;;-2.30;94.20;;;;;;5133719;27;19923;-83
2021/12/07 04:00:12;;;;;;;;;;;-2.30;94.20;;;;;;5129658;28;19919;-82
2021/12/07 04:02:40;;;;;;;;;;;-2.20;94.30;;;;;;5112919;27;19925;-83
2021/12/07 04:05:12;;;;;;;;;;;-2.30;94.30;;;;;;5121815;28;19938;-83
2021/12/07 04:07:38;;;;;;;;;;;-2.20;94.40;;;;;;5116500;27;19922;-83
2021/12/07 04:10:06;;;;;;;;;;;-2.30;94.40;;;;;;5086369;28;19984;-84
2021/12/07 04:12:33;;;;;;;;;;;-2.30;94.50;;;;;;5121466;27;19925;-81
2021/12/07 04:15:00;;;;;;;;;;;-2.30;94.60;;;;;;5140529;27;19925;-82
2021/12/07 04:17:26;;;;;;;;;;;-2.30;94.70;;;;;;5114146;27;19925;-82
2021/12/07 04:19:52;;;;;;;;;;;-2.30;94.70;;;;;;5141068;27;20363;-83
2021/12/07 04:22:18;;;;;;;;;;;-2.30;94.80;;;;;;5109048;28;19926;-84
2021/12/07 04:24:44;;;;;;;;;;;-2.30;94.90;;;;;;5117692;28;19919;-81
2021/12/07 04:27:10;;;;;;;;;;;-2.30;95.00;;;;;;5108627;28;19935;-82
2021/12/07 04:29:36;;;;;;;;;;;-2.30;95.10;;;;;;5106632;27;19923;-81
2021/12/07 04:32:02;;;;;;;;;;;-2.30;95.20;;;;;;5102308;28;19967;-82
2021/12/07 04:34:28;;;;;;;;;;;-2.30;95.30;;;;;;5116355;28;19919;-82
2021/12/07 04:36:54;;;;;;;;;;;-2.30;95.30;;;;;;5120746;28;19946;-82
2021/12/07 04:39:20;;;;;;;;;;;-2.40;95.40;;;;;;5099238;28;19966;-82
2021/12/07 04:41:48;;;;;;;;;;;-2.40;95.60;;;;;;5097861;27;20360;-82
2021/12/07 04:44:14;;;;;;;;;;;-2.40;95.70;;;;;;5116290;27;20437;-83
2021/12/07 04:46:52;;;;;;;;;;;-2.40;95.80;;;;;;5088166;27;20030;-82
2021/12/07 05:00:01;;;;;;;;;;;-2.40;96.20;;;;;;5129126;27;20014;-83
2021/12/07 05:02:27;;;;;;;;;;;-2.40;96.30;;;;;;5106922;27;19956;-84
2021/12/07 05:04:53;;;;;;;;;;;-2.40;96.30;;;;;;5137447;27;19920;-83
2021/12/07 05:07:28;;;;;;;;;;;-2.40;96.30;;;;;;5104366;27;19924;-83
2021/12/07 05:12:33;;;;;;;;;;;-2.40;96.40;;;;;;5133721;27;19923;-83
2021/12/07 05:15:06;;;;;;;;;;;-2.40;96.50;;;;;;5140159;27;20384;-83
2021/12/07 05:39:22;;;;;;;;;;;-2.60;96.90;;;;;;5090243;28;19985;-85
2021/12/07 05:41:48;;;;;;;;;;;-2.70;96.90;;;;;;5075114;28;19916;-80
2021/12/07 05:44:14;;;;;;;;;;;-2.70;97.00;;;;;;5084584;28;19920;-80
2021/12/07 05:46:40;;;;;;;;;;;-2.80;97.10;;;;;;5064860;28;19924;-78
2021/12/07 05:49:06;;;;;;;;;;;-2.70;97.20;;;;;;5055864;28;20376;-80
2021/12/07 05:51:32;;;;;;;;;;;-2.80;97.20;;;;;;5059568;28;19917;-80
2021/12/07 05:53:58;;;;;;;;;;;-2.80;97.30;;;;;;5080174;28;19924;-82
2021/12/07 05:56:24;;;;;;;;;;;-2.90;97.40;;;;;;5083618;28;19942;-81
2021/12/07 05:58:50;;;;;;;;;;;-2.90;97.40;;;;;;5065002;28;20395;-81
2021/12/07 06:01:16;;;;;;;;;;;-3.00;97.60;;;;;;5058235;28;20121;-85
2021/12/07 06:03:42;;;;;;;;;;;-3.00;97.70;;;;;;5075287;28;20468;-83
2021/12/07 06:06:08;;;;;;;;;;;-3.00;97.80;;;;;;5074988;28;19938;-79
2021/12/07 06:08:34;;;;;;;;;;;-3.10;97.90;;;;;;5115533;27;19923;-80
2021/12/07 06:11:00;;;;;;;;;;;-3.10;98.10;;;;;;5112931;27;20349;-81
2021/12/07 06:13:26;;;;;;;;;;;-3.10;98.20;;;;;;5107330;27;19918;-81
2021/12/07 06:15:52;;;;;;;;;;;-3.10;98.30;;;;;;5146051;27;19919;-80
2021/12/07 06:18:18;;;;;;;;;;;-3.10;98.40;;;;;;5131967;27;20263;-81
2021/12/07 06:20:44;;;;;;;;;;;-3.10;98.40;;;;;;5118806;27;19926;-78
2021/12/07 06:23:17;;;;;;;;;;;-3.10;98.40;;;;;;5124865;27;20382;-80
2021/12/07 06:25:43;;;;;;;;;;;-3.10;98.50;;;;;;5104451;27;19940;-81
2021/12/07 06:28:09;;;;;;;;;;;-3.10;98.50;;;;;;5115720;27;19951;-85
2021/12/07 06:30:35;;;;;;;;;;;-3.00;98.60;;;;;;5127427;27;19934;-82
2021/12/07 06:33:01;;;;;;;;;;;-3.10;98.50;;;;;;5108866;27;20264;-79
2021/12/07 06:35:27;;;;;;;;;;;-3.10;98.60;;;;;;5121813;27;20029;-79
2021/12/07 06:37:53;;;;;;;;;;;-3.10;98.60;;;;;;5142533;27;19918;-80
2021/12/07 06:40:19;;;;;;;;;;;-3.10;98.70;;;;;;5159772;27;19926;-80
2021/12/07 06:42:45;;;;;;;;;;;-3.10;98.70;;;;;;5129797;27;20279;-80
2021/12/07 06:45:11;;;;;;;;;;;-3.10;98.90;;;;;;5132837;27;19934;-80
2021/12/07 06:47:38;;;;;;;;;;;-3.10;99.00;;;;;;5137121;27;20373;-77
2021/12/07 06:50:05;;;;;;;;;;;-3.10;99.00;;;;;;5159163;27;19922;-79
2021/12/07 06:52:31;;;;;;;;;;;-3.10;99.10;;;;;;5128662;27;20013;-78
2021/12/07 06:54:58;;;;;;;;;;;-3.00;99.10;;;;;;5144845;27;19954;-79
2021/12/07 06:57:24;;;;;;;;;;;-3.00;99.00;;;;;;5163723;27;19919;-78
2021/12/07 06:59:51;;;;;;;;;;;-3.00;99.00;;;;;;5104802;27;19927;-79
2021/12/07 07:02:17;;;;;;;;;;;-3.00;99.10;;;;;;5122425;27;19922;-78
2021/12/07 07:04:44;;;;;;;;;;;-2.90;99.20;;;;;;5114784;27;19987;-77
2021/12/07 07:07:11;;;;;;;;;;;-2.90;99.20;;;;;;5098735;27;19939;-79
2021/12/07 07:09:36;;;;;;;;;;;-2.90;99.20;;;;;;5127307;27;19953;-79
2021/12/07 07:12:03;;;;;;;;;;;-2.90;99.20;;;;;;5136662;27;19915;-81
2021/12/07 07:14:29;;;;;;;;;;;-2.80;99.20;;;;;;5121000;27;20259;-80
2021/12/07 07:16:55;;;;;;;;;;;-2.80;99.20;;;;;;5119901;27;19915;-82
2021/12/07 07:19:21;;;;;;;;;;;-2.80;99.20;;;;;;5121217;27;20018;-78
2021/12/07 07:21:47;;;;;;;;;;;-2.80;99.20;;;;;;5132496;27;19934;-78
2021/12/07 07:24:13;;;;;;;;;;;-2.80;99.20;;;;;;5097021;27;19941;-78
2021/12/07 07:26:39;;;;;;;;;;;-2.70;99.20;;;;;;5116294;27;19923;-79
2021/12/07 07:29:05;;;;;;;;;;;-2.70;99.20;;;;;;5144568;27;19923;-78
2021/12/07 07:31:31;;;;;;;;;;;-2.70;99.20;;;;;;5134862;27;19938;-80
2021/12/07 07:33:57;;;;;;;;;;;-2.60;99.30;;;;;;5167241;27;19945;-78
2021/12/07 07:36:24;;;;;;;;;;;-2.60;99.20;;;;;;5132314;27;19948;-78
2021/12/07 07:38:50;;;;;;;;;;;-2.60;99.20;;;;;;5136545;27;19939;-80
2021/12/07 07:41:16;;;;;;;;;;;-2.50;99.20;;;;;;5139140;27;19918;-81
2021/12/07 07:43:42;;;;;;;;;;;-2.50;99.20;;;;;;5155511;27;19923;-82
2021/12/07 07:46:08;;;;;;;;;;;-2.50;99.20;;;;;;5137143;27;19929;-80
2021/12/07 07:48:34;;;;;;;;;;;-2.50;99.20;;;;;;5150953;27;19975;-79
2021/12/07 07:51:01;;;;;;;;;;;-2.40;99.10;;;;;;5135694;28;19907;-79
2021/12/07 07:53:27;;;;;;;;;;;-2.40;99.10;;;;;;5135449;27;19923;-81
2021/12/07 07:55:53;;;;;;;;;;;-2.30;99.00;;;;;;5139783;28;19930;-80
2021/12/07 07:58:19;;;;;;;;;;;-2.30;99.00;;;;;;5133294;27;19926;-81
2021/12/07 08:00:46;;;;;;;;;;;-2.30;98.80;;;;;;5131495;27;20325;-84
2021/12/07 08:03:12;;;;;;;;;;;-2.30;98.70;;;;;;5115733;28;19977;-81
2021/12/07 08:05:38;;;;;;;;;;;-2.20;98.70;;;;;;5095987;28;20546;-80
2021/12/07 08:08:04;;;;;;;;;;;-2.20;98.60;;;;;;5118403;27;19961;-79
2021/12/07 08:10:31;;;;;;;;;;;-2.20;98.60;;;;;;5132676;28;19952;-79
2021/12/07 08:12:58;;;;;;;;;;;-2.20;98.50;;;;;;5116150;27;20009;-81
2021/12/07 08:15:26;;;;;;;;;;;-2.20;98.30;;;;;;5098880;27;20055;-81
2021/12/07 08:17:52;;;;;;;;;;;-2.20;98.10;;;;;;5134444;27;19918;-80
2021/12/07 08:20:18;;;;;;;;;;;-2.20;97.80;;;;;;5133524;27;19934;-81
2021/12/07 08:22:44;;;;;;;;;;;-2.30;97.80;;;;;;5153721;27;19980;-82
2021/12/07 08:25:10;;;;;;;;;;;-2.30;97.80;;;;;;5118716;27;19923;-79
2021/12/07 08:27:36;;;;;;;;;;;-2.30;97.90;;;;;;5122440;27;19948;-79
2021/12/07 08:30:07;;;;;;;;;;;-2.30;97.80;;;;;;5116327;27;19981;-79
2021/12/07 08:32:33;;;;;;;;;;;-2.30;97.70;;;;;;5119662;27;19916;-78
2021/12/07 08:35:00;;;;;;;;;;;-2.30;97.80;;;;;;5134559;27;19934;-79
2021/12/07 08:37:26;;;;;;;;;;;-2.30;97.90;;;;;;5155154;27;19937;-78
2021/12/07 08:39:52;;;;;;;;;;;-2.30;97.80;;;;;;5156093;27;20005;-78
2021/12/07 08:42:19;;;;;;;;;;;-2.30;97.90;;;;;;5132535;27;19919;-77
2021/12/07 08:44:46;;;;;;;;;;;-2.30;97.90;;;;;;5133929;27;19915;-78
2021/12/07 08:47:12;;;;;;;;;;;-2.30;98.00;;;;;;5133767;27;19919;-77
2021/12/07 08:49:38;;;;;;;;;;;-2.20;97.90;;;;;;5118635;27;19930;-79
2021/12/07 08:52:04;;;;;;;;;;;-2.20;97.70;;;;;;5136327;27;19984;-77
2021/12/07 08:54:36;;;;;;;;;;;-2.20;97.60;;;;;;5155855;27;19915;-77
2021/12/07 08:59:48;;;;;;;;;;;-2.10;97.60;;;;;;5122352;27;20319;-79
2021/12/07 09:02:17;;;;;;;;;;;-2.10;97.50;;;;;;5155371;27;19923;-79
2021/12/07 09:04:43;;;;;;;;;;;-2.10;97.60;;;;;;5134370;27;19979;-78
2021/12/07 09:07:09;;;;;;;;;;;-2.10;97.50;;;;;;5153622;27;20005;-78
2021/12/07 09:09:36;;;;;;;;;;;-2.00;97.50;;;;;;5119827;27;20049;-79
2021/12/07 09:12:03;;;;;;;;;;;-2.00;97.30;;;;;;5119990;27;19915;-79
2021/12/07 09:14:30;;;;;;;;;;;-2.00;97.20;;;;;;5132345;27;19915;-78
2021/12/07 09:16:57;;;;;;;;;;;-2.00;97.20;;;;;;5115161;27;19923;-79
2021/12/07 09:19:23;;;;;;;;;;;-1.90;97.20;;;;;;5131434;27;20014;-79
2021/12/07 09:21:48;;;;;;;;;;;-1.90;97.00;;;;;;5134277;27;19956;-79
2021/12/07 09:24:15;;;;;;;;;;;-1.90;96.90;;;;;;5121885;27;19923;-79
2021/12/07 09:26:41;;;;;;;;;;;-1.90;96.90;;;;;;5109390;27;20259;-78
2021/12/07 09:29:07;;;;;;;;;;;-1.80;96.90;;;;;;5154674;27;20335;-78
2021/12/07 09:31:34;;;;;;;;;;;-1.80;96.80;;;;;;5136565;27;19923;-79
2021/12/07 09:34:00;;;;;;;;;;;-1.80;96.80;;;;;;5135858;27;19996;-78
2021/12/07 09:36:26;;;;;;;;;;;-1.70;96.80;;;;;;5132532;27;20162;-79
2021/12/07 09:38:52;;;;;;;;;;;-1.70;96.70;;;;;;5117264;27;20428;-79
2021/12/07 09:41:20;;;;;;;;;;;-1.70;96.60;;;;;;5154417;27;19915;-78
2021/12/07 09:43:46;;;;;;;;;;;-1.70;96.60;;;;;;5133995;27;19998;-78
2021/12/07 09:46:13;;;;;;;;;;;-1.60;96.40;;;;;;5115702;27;19957;-78
2021/12/07 09:48:40;;;;;;;;;;;-1.60;96.50;;;;;;5079965;27;19927;-79
2021/12/07 09:51:07;;;;;;;;;;;-1.60;96.10;;;;;;5127514;27;19940;-79
2021/12/07 09:53:33;;;;;;;;;;;-1.60;96.00;;;;;;5153415;27;20040;-77
2021/12/07 09:56:00;;;;;;;;;;;-1.60;95.90;;;;;;5154570;27;19919;-80
2021/12/07 09:58:26;;;;;;;;;;;-1.60;95.80;;;;;;5146500;27;19954;-79
2021/12/07 10:00:53;;;;;;;;;;;-1.60;95.60;;;;;;5118939;27;19920;-79
2021/12/07 10:03:21;;;;;;;;;;;-1.60;95.50;;;;;;5130750;27;19930;-80
2021/12/07 10:05:47;;;;;;;;;;;-1.60;95.50;;;;;;5108434;27;19923;-79
2021/12/07 10:08:14;;;;;;;;;;;-1.50;95.60;;;;;;5128814;27;19923;-78
2021/12/07 10:10:55;;;;;;;;;;;-1.50;95.60;;;;;;5114630;27;19918;-79
2021/12/07 10:13:27;;;;;;;;;;;-1.50;95.50;;;;;;5120285;27;19923;-79
2021/12/07 10:15:53;;;;;;;;;;;-1.50;95.50;;;;;;5097063;27;19922;-78
2021/12/07 10:18:21;;;;;;;;;;;-1.40;95.40;;;;;;5121006;27;19923;-78
2021/12/07 10:20:47;;;;;;;;;;;-1.40;95.30;;;;;;5131637;27;19923;-78
2021/12/07 10:23:16;;;;;;;;;;;-1.40;94.80;;;;;;5130922;27;19922;-78
2021/12/07 10:25:43;;;;;;;;;;;-1.40;94.60;;;;;;5104015;27;19923;-77
2021/12/07 10:28:27;;;;;;;;;;;-1.40;94.60;;;;;;5097714;27;19919;-78
2021/12/07 10:30:55;;;;;;;;;;;-1.40;94.60;;;;;;5115395;27;20406;-77
2021/12/07 10:33:35;;;;;;;;;;;-1.50;94.60;;;;;;5136198;27;19923;-77
2021/12/07 10:36:25;;;;;;;;;;;-1.50;94.80;;;;;;5115719;27;19959;-80
2021/12/07 10:38:51;;;;;;;;;;;-1.50;94.80;;;;;;5117471;27;19934;-78
2021/12/07 10:41:21;;;;;;;;;;;-1.40;94.80;;;;;;5131141;27;19915;-79
2021/12/07 10:44:20;;;;;;;;;;;-1.40;94.40;;;;;;5148149;27;19956;-78
2021/12/07 10:47:00;;;;;;;;;;;-1.40;94.50;;;;;;5069357;27;19920;-77
2021/12/07 10:49:32;;;;;;;;;;;-1.40;94.50;;;;;;5112126;27;19941;-79
2021/12/07 10:52:02;;;;;;;;;;;-1.40;94.50;;;;;;5131944;27;19942;-79
2021/12/07 10:54:29;;;;;;;;;;;-1.40;94.50;;;;;;5152773;27;19915;-80
2021/12/07 10:56:55;;;;;;;;;;;-1.40;94.40;;;;;;5134723;27;20055;-79
2021/12/07 10:59:22;;;;;;;;;;;-1.40;94.40;;;;;;5152766;27;20022;-78
2021/12/07 11:01:49;;;;;;;;;;;-1.40;94.20;;;;;;5152758;27;20402;-78
2021/12/07 11:04:35;;;;;;;;;;;-1.30;94.10;;;;;;5118867;27;20350;-79
2021/12/07 11:10:37;;;;;;;;;;;-1.40;94.00;;;;;;5072026;28;20402;-78
2021/12/07 11:15:32;;;;;;;;;;;-1.30;93.90;;;;;;5071299;28;19920;-77
2021/12/07 11:21:50;;;;;;;;;;;-1.30;93.90;;;;;;4960512;28;20032;-80
2021/12/07 11:24:19;;;;;;;;;;;-1.20;93.90;;;;;;4953756;28;19922;-77
2021/12/07 11:29:56;;;;;;;;;;;-1.10;93.70;;;;;;4934606;28;20742;-78
2021/12/07 11:32:22;;;;;;;;;;;-1.10;93.60;;;;;;4896942;29;19966;-78
2021/12/07 11:34:48;;;;;;;;;;;-1.20;93.50;;;;;;4919065;29;19918;-77
2021/12/07 11:37:14;;;;;;;;;;;-1.20;93.40;;;;;;4929339;29;20294;-78
2021/12/07 11:39:53;;;;;;;;;;;-1.20;93.40;;;;;;4915308;29;19937;-79
2021/12/07 11:42:29;;;;;;;;;;;-1.20;93.40;;;;;;4922368;29;19918;-79
2021/12/07 11:44:55;;;;;;;;;;;-1.20;93.40;;;;;;4911799;29;19971;-79
2021/12/07 11:47:30;;;;;;;;;;;-1.20;93.20;;;;;;4935662;29;20374;-79
2021/12/07 11:49:57;;;;;;;;;;;-1.20;93.00;;;;;;4949450;29;19926;-78
2021/12/07 11:52:23;;;;;;;;;;;-1.30;92.90;;;;;;4928556;28;20312;-80
2021/12/07 11:54:49;;;;;;;;;;;-1.30;92.90;;;;;;4969244;28;20345;-79
2021/12/07 11:57:17;;;;;;;;;;;-1.40;92.90;;;;;;4957682;28;20309;-80
2021/12/07 11:59:44;;;;;;;;;;;-1.40;93.00;;;;;;5077454;28;20010;-78
2021/12/07 12:02:10;;;;;;;;;;;-1.40;93.20;;;;;;5113295;28;19915;-78
2021/12/07 12:04:36;;;;;;;;;;;-1.30;93.20;;;;;;5096188;28;19930;-79
2021/12/07 12:07:03;;;;;;;;;;;-1.30;93.20;;;;;;5105102;27;20275;-78
2021/12/07 12:09:29;;;;;;;;;;;-1.30;93.00;;;;;;5151977;27;19919;-79
2021/12/07 12:12:05;;;;;;;;;;;-1.40;92.80;;;;;;5152521;27;19923;-78
2021/12/07 12:14:49;;;;;;;;;;;-1.40;92.80;;;;;;5116405;27;19919;-77
2021/12/07 12:17:36;;;;;;;;;;;-1.40;92.90;;;;;;5109355;28;19949;-79
2021/12/07 12:20:11;;;;;;;;;;;-1.40;93.10;;;;;;5128830;28;19919;-79
2021/12/07 12:22:37;;;;;;;;;;;-1.40;93.10;;;;;;5131732;27;20348;-78
2021/12/07 12:25:14;;;;;;;;;;;-1.30;93.10;;;;;;5116618;27;19915;-79
2021/12/07 12:27:41;;;;;;;;;;;-1.30;92.90;;;;;;5152251;27;19941;-78
2021/12/07 12:30:26;;;;;;;;;;;-1.30;92.90;;;;;;5118341;28;20017;-79
2021/12/07 12:32:54;;;;;;;;;;;-1.30;92.90;;;;;;5131883;28;19984;-79
2021/12/07 12:35:31;;;;;;;;;;;-1.30;92.90;;;;;;5095487;28;19915;-78
2021/12/07 12:37:59;;;;;;;;;;;-1.20;92.90;;;;;;5127829;27;20324;-79
2021/12/07 12:40:30;;;;;;;;;;;-1.20;92.90;;;;;;5134042;27;19952;-79
2021/12/07 12:42:57;;;;;;;;;;;-1.20;92.90;;;;;;5120188;27;20291;-79
2021/12/07 12:45:28;;;;;;;;;;;-1.10;92.90;;;;;;5102666;28;19923;-79
2021/12/07 12:48:17;;;;;;;;;;;-1.10;92.80;;;;;;5113308;28;19919;-79
2021/12/07 12:50:43;;;;;;;;;;;-1.10;92.80;;;;;;5135486;27;19931;-81
2021/12/07 12:53:18;;;;;;;;;;;-1.10;92.80;;;;;;5113707;27;20302;-80
2021/12/07 12:55:46;;;;;;;;;;;-1.10;92.60;;;;;;5122347;27;19939;-79
2021/12/07 12:58:15;;;;;;;;;;;-1.10;92.60;;;;;;5137108;27;19960;-78
2021/12/07 13:00:56;;;;;;;;;;;-1.10;92.50;;;;;;5120170;27;19919;-76
2021/12/07 13:03:22;;;;;;;;;;;-1.10;92.50;;;;;;5115842;27;19942;-79
2021/12/07 13:06:00;;;;;;;;;;;-1.10;92.50;;;;;;5154979;27;20347;-79
2021/12/07 13:08:27;;;;;;;;;;;-1.10;92.40;;;;;;5129001;27;19923;-79
2021/12/07 13:11:00;;;;;;;;;;;-1.10;92.30;;;;;;5134464;27;19915;-77
2021/12/07 13:13:33;;;;;;;;;;;-1.10;92.30;;;;;;5135870;27;19923;-79
2021/12/07 13:15:59;;;;;;;;;;;-1.10;92.20;;;;;;5135342;27;19916;-78
2021/12/07 13:18:32;;;;;;;;;;;-1.20;92.20;;;;;;5118206;27;19919;-79
2021/12/07 13:20:58;;;;;;;;;;;-1.20;92.20;;;;;;5149689;27;19919;-78
2021/12/07 13:23:29;;;;;;;;;;;-1.20;92.20;;;;;;5129137;27;19934;-80
2021/12/07 13:25:55;;;;;;;;;;;-1.30;92.20;;;;;;5132523;27;20001;-80
2021/12/07 13:28:26;;;;;;;;;;;-1.30;92.20;;;;;;5114220;27;19972;-82
2021/12/07 13:30:57;;;;;;;;;;;-1.40;92.30;;;;;;5140205;27;20251;-79
2021/12/07 13:33:43;;;;;;;;;;;-1.40;92.30;;;;;;5074293;27;19924;-81
2021/12/07 13:36:28;;;;;;;;;;;-1.50;92.30;;;;;;5120711;27;19954;-80
2021/12/07 13:38:58;;;;;;;;;;;-1.50;92.30;;;;;;5130168;27;19930;-79
2021/12/07 13:41:24;;;;;;;;;;;-1.50;92.40;;;;;;5124603;27;19916;-78
2021/12/07 13:43:51;;;;;;;;;;;-1.50;92.40;;;;;;5137040;27;19915;-80
2021/12/07 13:46:19;;;;;;;;;;;-1.50;92.50;;;;;;5125209;27;20053;-78
2021/12/07 13:48:46;;;;;;;;;;;-1.50;92.50;;;;;;5131419;27;19934;-80
2021/12/07 13:51:13;;;;;;;;;;;-1.60;92.60;;;;;;5136278;27;19934;-82
2021/12/07 13:53:40;;;;;;;;;;;-1.60;92.60;;;;;;5117686;27;19919;-81
2021/12/07 13:56:06;;;;;;;;;;;-1.60;92.70;;;;;;5101858;27;19922;-82
2021/12/07 13:58:51;;;;;;;;;;;-1.60;92.70;;;;;;5131325;27;19923;-81
2021/12/07 14:01:17;;;;;;;;;;;-1.60;92.70;;;;;;5115155;27;19919;-81
2021/12/07 14:03:44;;;;;;;;;;;-1.60;92.80;;;;;;5114542;27;19915;-79
2021/12/07 14:06:10;;;;;;;;;;;-1.60;92.80;;;;;;5115082;27;19929;-82
2021/12/07 14:08:36;;;;;;;;;;;-1.60;92.80;;;;;;5135290;27;20404;-83
2021/12/07 14:11:02;;;;;;;;;;;-1.70;92.90;;;;;;5102972;27;20013;-82
2021/12/07 14:13:28;;;;;;;;;;;-1.70;92.90;;;;;;5096637;27;19915;-81
2021/12/07 14:15:54;;;;;;;;;;;-1.70;93.00;;;;;;5114450;27;19924;-81
2021/12/07 14:18:23;;;;;;;;;;;-1.80;93.10;;;;;;5134146;27;19989;-81
2021/12/07 14:20:50;;;;;;;;;;;-1.80;93.20;;;;;;5097341;27;20384;-80
2021/12/07 14:23:36;;;;;;;;;;;-1.80;93.30;;;;;;5097334;27;20027;-80
2021/12/07 14:26:05;;;;;;;;;;;-1.80;93.40;;;;;;5115065;27;19915;-81
2021/12/07 14:28:31;;;;;;;;;;;-1.80;93.50;;;;;;5114627;27;19972;-81
2021/12/07 14:31:20;;;;;;;;;;;-1.80;93.50;;;;;;5118971;27;19919;-80
2021/12/07 14:33:55;;;;;;;;;;;-1.80;93.60;;;;;;5122863;27;19972;-80
2021/12/07 14:36:23;;;;;;;;;;;-1.80;93.60;;;;;;5098172;27;19927;-81
2021/12/07 14:38:49;;;;;;;;;;;-1.80;93.60;;;;;;5123843;27;19931;-80
2021/12/07 14:41:17;;;;;;;;;;;-1.80;93.60;;;;;;5115803;27;19926;-80
2021/12/07 14:43:43;;;;;;;;;;;-1.80;93.80;;;;;;5100187;27;19915;-81
2021/12/07 14:46:10;;;;;;;;;;;-1.90;93.70;;;;;;5101110;27;19919;-81
2021/12/07 14:48:37;;;;;;;;;;;-1.90;93.70;;;;;;5134322;27;19926;-80
2021/12/07 14:51:12;;;;;;;;;;;-1.80;93.90;;;;;;5152798;27;19926;-80
2021/12/07 14:53:39;;;;;;;;;;;-1.90;94.00;;;;;;5115601;27;19930;-81
2021/12/07 14:56:06;;;;;;;;;;;-1.90;94.00;;;;;;5152944;27;19939;-80
2021/12/07 14:58:32;;;;;;;;;;;-1.90;94.10;;;;;;5118623;27;19919;-79
2021/12/07 15:00:59;;;;;;;;;;;-1.90;94.10;;;;;;5096481;27;19919;-79
2021/12/07 15:03:35;;;;;;;;;;;-1.90;94.10;;;;;;5113418;27;20327;-79
2021/12/07 15:06:02;;;;;;;;;;;-1.90;94.00;;;;;;5096532;27;19923;-79
2021/12/07 15:08:28;;;;;;;;;;;-1.90;94.00;;;;;;5101245;27;19933;-82
2021/12/07 15:10:55;;;;;;;;;;;-1.90;94.10;;;;;;5117327;27;20285;-80
2021/12/07 15:13:22;;;;;;;;;;;-1.90;94.10;;;;;;5100953;27;20039;-82
2021/12/07 15:15:48;;;;;;;;;;;-2.00;94.00;;;;;;5143269;27;19998;-81
2021/12/07 15:18:14;;;;;;;;;;;-2.00;94.00;;;;;;5117033;27;20506;-81
2021/12/07 15:20:40;;;;;;;;;;;-2.00;94.10;;;;;;5130113;27;20250;-82
2021/12/07 15:23:06;;;;;;;;;;;-2.10;94.10;;;;;;5113592;27;19919;-81
2021/12/07 15:25:32;;;;;;;;;;;-2.10;94.20;;;;;;5119571;27;19973;-81
2021/12/07 15:27:59;;;;;;;;;;;-2.20;94.30;;;;;;5119325;27;19923;-81
2021/12/07 15:30:25;;;;;;;;;;;-2.20;94.30;;;;;;5101918;27;19926;-81
2021/12/07 15:32:51;;;;;;;;;;;-2.30;94.20;;;;;;5115335;27;19920;-83
2021/12/07 15:35:24;;;;;;;;;;;-2.30;94.20;;;;;;5096288;27;20431;-82
2021/12/07 15:37:50;;;;;;;;;;;-2.30;94.40;;;;;;5132930;27;19915;-84
2021/12/07 15:40:18;;;;;;;;;;;-2.40;94.50;;;;;;5150708;27;19969;-82
2021/12/07 15:42:44;;;;;;;;;;;-2.30;94.60;;;;;;5131863;27;19946;-82
2021/12/07 15:45:11;;;;;;;;;;;-2.40;94.70;;;;;;5115255;28;20536;-83
2021/12/07 15:47:41;;;;;;;;;;;-2.40;94.80;;;;;;5131304;27;19942;-82
2021/12/07 15:50:13;;;;;;;;;;;-2.40;95.00;;;;;;5115391;27;20093;-83
2021/12/07 15:52:43;;;;;;;;;;;-2.40;94.70;;;;;;5111225;27;19986;-84
2021/12/07 15:55:12;;;;;;;;;;;-2.40;94.80;;;;;;5147445;27;19919;-82
2021/12/07 15:57:46;;;;;;;;;;;-2.40;94.90;;;;;;5126963;27;19915;-80
2021/12/07 16:00:15;;;;;;;;;;;-2.40;94.90;;;;;;5128723;27;19939;-80
2021/12/07 16:02:48;;;;;;;;;;;-2.40;95.00;;;;;;5122504;27;20397;-80
2021/12/07 16:05:14;;;;;;;;;;;-2.40;94.90;;;;;;5155433;27;19987;-81
2021/12/07 16:07:42;;;;;;;;;;;-2.40;95.00;;;;;;5134873;27;20384;-82
2021/12/07 16:10:13;;;;;;;;;;;-2.40;95.10;;;;;;5117825;27;19968;-82
2021/12/07 16:12:39;;;;;;;;;;;-2.40;95.10;;;;;;5127041;28;19943;-82